San Clemente Island, California
Current Conditions -  °F | °C
As of 2:51 AM on Monday 20 Oct 2014 (Local Time) from KAVX Reporting Station
Clear Clear  
Wind Chill: 63°   Ceiling: Unl
Heat Index: 63°   Visibility: 10mi
Dew Point: 53°   Wind: 0mph
Humidity: 70%   Direction: NA
Pressure: 29.92"   Gusts: NA
Location:  33.02°N, 118.58°W
Report Text: KAVX 200951Z AUTO 00000KT 10SM CLR 17/12 A2992 RMK AO2 SLP113 T01720117 $
Loading
Personal Weather Stations






























Interactive Weather Map
Tropical Storm Tracking
New forecast layout! Learn more

10-Day Weather Forecast

Advertisements
Track Severe Weather on mobile